Time;durP1;ratioP1;P1;durP2;ratioP2;P2;SDS_P1;SDS_P2;PMS_P1;PMS_P2;Temp;Humidity;BMP_temperature;BMP_pressure;BME280_temperature;BME280_humidity;BME280_pressure;Samples;Min_cycle;Max_cycle;Signal;HPM_P1;HPM_P2
2023/06/14 00:00:28;;;;;;;21.08;3.88;;;;;;;;;;6286722;28;20308;-70
2023/06/14 00:03:32;;;;;;;30.33;4.05;;;;;;;;;;6286899;28;20311;-70
2023/06/14 00:06:38;;;;;;;20.08;3.67;;;;;;;;;;6286987;28;20544;-70
2023/06/14 00:09:43;;;;;;;38.45;4.57;;;;;;;;;;6286507;28;20333;-70
2023/06/14 00:12:49;;;;;;;38.08;4.15;;;;;;;;;;6287014;28;20275;-70
2023/06/14 00:15:54;;;;;;;11.55;3.38;;;;;;;;;;6286095;28;20271;-71
2023/06/14 00:18:59;;;;;;;24.05;3.95;;;;;;;;;;6286459;28;20294;-70
2023/06/14 00:22:05;;;;;;;29.88;4.47;;;;;;;;;;6286741;28;20236;-70
2023/06/14 00:25:09;;;;;;;39.05;4.70;;;;;;;;;;6286444;28;20302;-72
2023/06/14 00:28:33;;;;;;;37.03;5.43;;;;;;;;;;6284489;28;20290;-70
2023/06/14 00:31:37;;;;;;;27.27;4.53;;;;;;;;;;6287012;28;20239;-71
2023/06/14 00:34:42;;;;;;;59.05;6.72;;;;;;;;;;6285850;28;20296;-70
2023/06/14 00:37:46;;;;;;;51.30;6.63;;;;;;;;;;6286620;28;20248;-72
2023/06/14 00:40:51;;;;;;;29.15;5.38;;;;;;;;;;6285897;28;20299;-70
2023/06/14 00:43:58;;;;;;;20.80;3.47;;;;;;;;;;6284515;28;20287;-70
2023/06/14 00:47:03;;;;;;;43.30;5.10;;;;;;;;;;6285229;28;20239;-71
2023/06/14 00:50:09;;;;;;;35.60;5.25;;;;;;;;;;6285501;28;20307;-70
2023/06/14 00:53:15;;;;;;;38.42;5.88;;;;;;;;;;6284935;28;20298;-70
2023/06/14 00:56:20;;;;;;;20.25;6.20;;;;;;;;;;6286588;28;20243;-71
2023/06/14 00:59:29;;;;;;;31.73;5.38;;;;;;;;;;6286204;28;20583;-70
2023/06/14 01:02:33;;;;;;;28.08;6.10;;;;;;;;;;6285173;28;20267;-70
2023/06/14 01:05:38;;;;;;;36.95;6.03;;;;;;;;;;6284245;28;20307;-70
2023/06/14 01:08:48;;;;;;;33.80;5.53;;;;;;;;;;6284039;28;20295;-70
2023/06/14 01:11:59;;;;;;;33.88;5.47;;;;;;;;;;6275995;28;20429;-72
2023/06/14 01:15:06;;;;;;;19.55;4.75;;;;;;;;;;6260600;28;20291;-70
2023/06/14 01:18:17;;;;;;;15.05;4.30;;;;;;;;;;6260268;28;20315;-71
2023/06/14 01:21:23;;;;;;;13.35;4.28;;;;;;;;;;6260897;28;20268;-70
2023/06/14 01:24:31;;;;;;;8.35;3.90;;;;;;;;;;6260213;28;20575;-71
2023/06/14 01:27:55;;;;;;;25.77;4.88;;;;;;;;;;6258717;28;20477;-72
2023/06/14 01:31:04;;;;;;;16.83;4.25;;;;;;;;;;6259984;28;20583;-71
2023/06/14 01:34:10;;;;;;;15.13;4.05;;;;;;;;;;6274746;28;20456;-72
2023/06/14 01:37:15;;;;;;;25.85;3.88;;;;;;;;;;6292425;28;20271;-71
2023/06/14 01:40:21;;;;;;;19.15;3.50;;;;;;;;;;6257975;28;20291;-71
2023/06/14 01:43:28;;;;;;;24.92;3.90;;;;;;;;;;6260033;28;20296;-70
2023/06/14 01:46:33;;;;;;;25.38;4.47;;;;;;;;;;6258429;28;20264;-69
2023/06/14 01:49:39;;;;;;;24.70;3.63;;;;;;;;;;6275169;28;20299;-70
2023/06/14 01:52:46;;;;;;;8.63;3.08;;;;;;;;;;6259848;28;20244;-71
2023/06/14 01:55:54;;;;;;;18.08;3.40;;;;;;;;;;6259835;28;20295;-70
2023/06/14 01:58:59;;;;;;;26.10;4.30;;;;;;;;;;6260328;28;20284;-70
2023/06/14 02:02:05;;;;;;;20.20;4.60;;;;;;;;;;6265059;28;20263;-70
2023/06/14 02:05:10;;;;;;;18.58;3.75;;;;;;;;;;6264848;28;20291;-70
2023/06/14 02:08:17;;;;;;;36.22;4.93;;;;;;;;;;6262985;28;20291;-71
2023/06/14 02:11:23;;;;;;;32.80;4.88;;;;;;;;;;6312055;28;20275;-71
2023/06/14 02:14:28;;;;;;;20.40;3.50;;;;;;;;;;6289407;28;20310;-71
2023/06/14 02:17:33;;;;;;;17.63;3.88;;;;;;;;;;6321632;28;20520;-70
2023/06/14 02:20:42;;;;;;;18.88;4.70;;;;;;;;;;6287898;28;20300;-70
2023/06/14 02:23:48;;;;;;;9.77;3.28;;;;;;;;;;6289137;28;20283;-71
2023/06/14 02:26:55;;;;;;;5.30;3.05;;;;;;;;;;6322015;28;20275;-71
2023/06/14 02:29:59;;;;;;;3.55;3.28;;;;;;;;;;6287156;28;20303;-71
2023/06/14 02:33:04;;;;;;;6.90;3.30;;;;;;;;;;6289108;28;20243;-70
2023/06/14 02:36:09;;;;;;;14.30;3.25;;;;;;;;;;6287889;28;20275;-71
2023/06/14 02:39:14;;;;;;;4.72;2.67;;;;;;;;;;6288936;28;20299;-72
2023/06/14 02:42:21;;;;;;;9.38;2.78;;;;;;;;;;6287678;28;20278;-70
2023/06/14 02:45:26;;;;;;;14.55;3.00;;;;;;;;;;6320947;28;20295;-70
2023/06/14 02:48:32;;;;;;;5.57;2.70;;;;;;;;;;6287414;28;20291;-70
2023/06/14 02:51:36;;;;;;;4.43;2.70;;;;;;;;;;6289184;28;20255;-71
2023/06/14 02:54:41;;;;;;;4.32;2.58;;;;;;;;;;6288405;28;20290;-70
2023/06/14 02:57:49;;;;;;;8.38;3.22;;;;;;;;;;6288310;28;20334;-71
2023/06/14 03:00:54;;;;;;;13.85;3.28;;;;;;;;;;6279741;28;20291;-70
2023/06/14 03:04:00;;;;;;;10.20;4.15;;;;;;;;;;6291010;28;20266;-70
2023/06/14 03:07:10;;;;;;;8.25;4.22;;;;;;;;;;6278740;28;20390;-70
2023/06/14 03:10:17;;;;;;;5.47;3.30;;;;;;;;;;6263986;28;20299;-71
2023/06/14 03:13:24;;;;;;;7.93;3.25;;;;;;;;;;6278805;28;20272;-70
2023/06/14 03:16:29;;;;;;;6.32;3.30;;;;;;;;;;6263091;28;20299;-70
2023/06/14 03:19:35;;;;;;;10.77;3.50;;;;;;;;;;6295763;28;20591;-70
2023/06/14 03:22:41;;;;;;;7.90;2.70;;;;;;;;;;6286809;28;20290;-71
2023/06/14 03:25:45;;;;;;;3.85;3.20;;;;;;;;;;6286394;28;20291;-71
2023/06/14 03:28:52;;;;;;;12.30;2.80;;;;;;;;;;6288324;28;20291;-69
2023/06/14 03:31:59;;;;;;;8.25;2.67;;;;;;;;;;6287632;28;20338;-71
2023/06/14 03:35:16;;;;;;;7.00;2.80;;;;;;;;;;6287568;28;20599;-71
2023/06/14 03:38:25;;;;;;;12.07;3.63;;;;;;;;;;6286512;28;20275;-71
2023/06/14 03:41:29;;;;;;;15.43;3.17;;;;;;;;;;6286047;28;20298;-69
2023/06/14 03:44:36;;;;;;;13.43;3.17;;;;;;;;;;6286040;28;20287;-71
2023/06/14 03:47:41;;;;;;;8.85;3.10;;;;;;;;;;6286139;28;20267;-71
2023/06/14 03:50:45;;;;;;;7.60;3.35;;;;;;;;;;6285620;28;20299;-71
2023/06/14 03:53:50;;;;;;;6.25;2.97;;;;;;;;;;6286166;28;20276;-70
2023/06/14 03:57:15;;;;;;;7.45;3.63;;;;;;;;;;6286393;28;20271;-71
2023/06/14 04:00:23;;;;;;;7.72;3.10;;;;;;;;;;6285885;28;20290;-70
2023/06/14 04:03:29;;;;;;;10.25;3.28;;;;;;;;;;6286195;28;20266;-71
2023/06/14 04:06:36;;;;;;;3.50;3.22;;;;;;;;;;6285147;28;20292;-71
2023/06/14 04:09:42;;;;;;;6.70;3.67;;;;;;;;;;6285098;28;20287;-70
2023/06/14 04:12:47;;;;;;;26.52;4.20;;;;;;;;;;6287422;28;20288;-71
2023/06/14 04:15:53;;;;;;;18.13;3.65;;;;;;;;;;6285364;28;20395;-70
2023/06/14 04:19:03;;;;;;;6.28;3.63;;;;;;;;;;6285835;28;20347;-70
2023/06/14 04:22:10;;;;;;;11.32;3.92;;;;;;;;;;6285584;28;20316;-71
2023/06/14 04:25:16;;;;;;;15.60;4.75;;;;;;;;;;6284751;28;20308;-70
2023/06/14 04:28:25;;;;;;;15.35;4.10;;;;;;;;;;6301447;28;20461;-71
2023/06/14 04:31:34;;;;;;;27.63;4.50;;;;;;;;;;6284877;28;20298;-71
2023/06/14 04:34:40;;;;;;;14.13;4.22;;;;;;;;;;6286597;28;20306;-70
2023/06/14 04:37:45;;;;;;;10.38;3.85;;;;;;;;;;6285527;28;20267;-71
2023/06/14 04:40:52;;;;;;;13.38;4.10;;;;;;;;;;6284442;28;20469;-72
2023/06/14 04:44:02;;;;;;;16.73;4.18;;;;;;;;;;6285315;28;20271;-71
2023/06/14 04:47:14;;;;;;;7.05;3.55;;;;;;;;;;6284544;28;20351;-71
2023/06/14 04:50:20;;;;;;;19.58;4.32;;;;;;;;;;6284398;28;20287;-71
2023/06/14 04:53:28;;;;;;;10.18;3.22;;;;;;;;;;6284876;28;20275;-69
2023/06/14 04:56:37;;;;;;;12.27;3.30;;;;;;;;;;6284453;28;20294;-71
2023/06/14 04:59:44;;;;;;;14.93;3.83;;;;;;;;;;6284311;28;20294;-71
2023/06/14 05:02:51;;;;;;;12.05;3.50;;;;;;;;;;6285950;28;20556;-69
2023/06/14 05:05:56;;;;;;;16.15;3.22;;;;;;;;;;6284241;28;20298;-69
2023/06/14 05:09:01;;;;;;;14.35;3.28;;;;;;;;;;6284390;28;20283;-70
2023/06/14 05:12:08;;;;;;;11.23;3.03;;;;;;;;;;6285141;28;20279;-70
2023/06/14 05:15:13;;;;;;;13.50;3.17;;;;;;;;;;6285531;28;20291;-69
2023/06/14 05:18:19;;;;;;;9.80;3.33;;;;;;;;;;6284830;28;20305;-70
2023/06/14 05:21:24;;;;;;;;;;;;;;;;;;6285666;28;20116;-71
2023/06/14 05:24:29;;;;;;;;;;;;;;;;;;6285371;28;19976;-70
2023/06/14 05:27:35;;;;;;;;;;;;;;;;;;6285975;28;19980;-70
2023/06/14 05:30:40;;;;;;;;;;;;;;;;;;6285350;28;19975;-70
2023/06/14 05:33:45;;;;;;;;;;;;;;;;;;6285607;28;19979;-71
2023/06/14 05:36:50;;;;;;;;;;;;;;;;;;6284260;28;19976;-70
2023/06/14 05:39:54;;;;;;;21.15;3.67;;;;;;;;;;6284939;28;20269;-70
2023/06/14 05:42:59;;;;;;;18.60;3.55;;;;;;;;;;6284229;28;20314;-70
2023/06/14 05:46:03;;;;;;;17.67;3.55;;;;;;;;;;6285473;28;20298;-71
2023/06/14 05:49:11;;;;;;;22.45;3.72;;;;;;;;;;6284911;28;20524;-70
2023/06/14 05:52:16;;;;;;;16.55;4.43;;;;;;;;;;6285377;28;20248;-72
2023/06/14 05:55:21;;;;;;;13.30;4.10;;;;;;;;;;6284974;28;20298;-71
2023/06/14 05:58:26;;;;;;;22.48;4.22;;;;;;;;;;6285186;28;20235;-71
2023/06/14 06:01:32;;;;;;;11.00;3.78;;;;;;;;;;6284972;28;20298;-72
2023/06/14 06:04:39;;;;;;;15.80;3.70;;;;;;;;;;6284087;28;20290;-71
2023/06/14 06:07:45;;;;;;;22.88;3.72;;;;;;;;;;6285273;28;20243;-72
2023/06/14 06:10:50;;;;;;;3.72;3.10;;;;;;;;;;6284707;28;20295;-71
2023/06/14 06:13:54;;;;;;;4.28;3.33;;;;;;;;;;6285207;28;20264;-72
2023/06/14 06:16:59;;;;;;;11.52;3.70;;;;;;;;;;6284449;28;20595;-70
2023/06/14 06:20:08;;;;;;;11.38;3.33;;;;;;;;;;6284484;28;20599;-71
2023/06/14 06:23:12;;;;;;;9.20;3.45;;;;;;;;;;6284924;28;20271;-71
2023/06/14 06:26:17;;;;;;;15.07;3.60;;;;;;;;;;6284691;28;20295;-71
2023/06/14 06:29:22;;;;;;;7.50;3.38;;;;;;;;;;6284140;28;20291;-70
2023/06/14 06:32:27;;;;;;;14.10;3.58;;;;;;;;;;6284965;28;20437;-71
2023/06/14 06:35:33;;;;;;;9.68;3.63;;;;;;;;;;6285303;28;20303;-71
2023/06/14 06:38:38;;;;;;;14.27;3.90;;;;;;;;;;6300257;28;20272;-71
2023/06/14 06:41:42;;;;;;;15.55;4.25;;;;;;;;;;6284173;28;20294;-72
2023/06/14 06:44:47;;;;;;;14.80;3.65;;;;;;;;;;6285539;28;20299;-73
2023/06/14 06:47:52;;;;;;;13.18;3.67;;;;;;;;;;6289810;28;20243;-70
2023/06/14 06:50:58;;;;;;;11.40;3.35;;;;;;;;;;6289205;28;20299;-72
2023/06/14 06:54:02;;;;;;;9.95;3.22;;;;;;;;;;6289236;28;20404;-70
2023/06/14 06:57:07;;;;;;;20.75;4.07;;;;;;;;;;6288958;28;20559;-71
2023/06/14 07:00:13;;;;;;;11.43;3.40;;;;;;;;;;6287921;28;20299;-70
2023/06/14 07:03:18;;;;;;;7.65;3.47;;;;;;;;;;6289449;28;20259;-71
2023/06/14 07:06:27;;;;;;;6.30;2.95;;;;;;;;;;6288126;28;20307;-72
2023/06/14 07:09:31;;;;;;;9.55;3.30;;;;;;;;;;6288575;28;20295;-70
2023/06/14 07:12:39;;;;;;;;;;;;;;;;;;6288753;28;20243;-70
2023/06/14 07:15:43;;;;;;;;;;;;;;;;;;6288521;28;20271;-71
2023/06/14 07:18:48;;;;;;;7.70;3.10;;;;;;;;;;6289043;28;19980;-72
2023/06/14 07:21:54;;;;;;;5.77;3.30;;;;;;;;;;6287783;28;20311;-71
2023/06/14 07:24:59;;;;;;;4.22;3.10;;;;;;;;;;6286803;28;20291;-71
2023/06/14 07:28:04;;;;;;;5.43;3.08;;;;;;;;;;6288307;28;20243;-71
2023/06/14 07:31:09;;;;;;;10.23;3.25;;;;;;;;;;6287785;28;20311;-71
2023/06/14 07:34:13;;;;;;;8.13;3.00;;;;;;;;;;6287816;28;20512;-70
2023/06/14 07:37:20;;;;;;;21.40;4.53;;;;;;;;;;6288590;28;20240;-71
2023/06/14 07:40:24;;;;;;;32.53;5.38;;;;;;;;;;6288022;28;20291;-71
2023/06/14 07:43:29;;;;;;;7.13;3.28;;;;;;;;;;6287802;28;20259;-71
2023/06/14 07:46:34;;;;;;;7.88;3.00;;;;;;;;;;6287787;28;20295;-72
2023/06/14 07:49:39;;;;;;;3.15;2.97;;;;;;;;;;6287223;28;20404;-71
2023/06/14 07:52:46;;;;;;;4.72;3.30;;;;;;;;;;6287347;28;20272;-72
2023/06/14 07:55:51;;;;;;;4.05;3.75;;;;;;;;;;6285170;28;20311;-71
2023/06/14 07:58:57;;;;;;;3.05;2.83;;;;;;;;;;6287061;28;20243;-71
2023/06/14 08:02:02;;;;;;;5.18;3.42;;;;;;;;;;6286828;28;20291;-71
2023/06/14 08:05:08;;;;;;;3.50;3.22;;;;;;;;;;6286815;28;20287;-71
2023/06/14 08:08:14;;;;;;;4.43;2.83;;;;;;;;;;6287318;28;20232;-71
2023/06/14 08:11:18;;;;;;;10.88;3.10;;;;;;;;;;6286627;28;20291;-71
2023/06/14 08:14:23;;;;;;;7.30;3.40;;;;;;;;;;6286763;28;20252;-72
2023/06/14 08:17:28;;;;;;;5.63;3.63;;;;;;;;;;6287688;28;20243;-71
2023/06/14 08:20:34;;;;;;;15.52;3.80;;;;;;;;;;6286775;28;20291;-72
2023/06/14 08:23:41;;;;;;;11.90;4.13;;;;;;;;;;6287086;28;20263;-71
2023/06/14 08:26:46;;;;;;;5.63;3.15;;;;;;;;;;6286211;28;20299;-71
2023/06/14 08:29:51;;;;;;;6.20;2.92;;;;;;;;;;6286235;28;20298;-72
2023/06/14 08:32:56;;;;;;;5.80;3.50;;;;;;;;;;6286832;28;20236;-71
2023/06/14 08:36:18;;;;;;;11.98;3.30;;;;;;;;;;6286380;28;20594;-71
2023/06/14 08:39:25;;;;;;;3.13;3.03;;;;;;;;;;6286998;28;20508;-72
2023/06/14 08:42:30;;;;;;;3.30;3.10;;;;;;;;;;6285357;28;20267;-72
2023/06/14 08:45:36;;;;;;;5.18;3.25;;;;;;;;;;6285590;28;20492;-71
2023/06/14 08:48:41;;;;;;;4.95;3.30;;;;;;;;;;6286166;28;20240;-71
2023/06/14 08:51:47;;;;;;;7.88;3.70;;;;;;;;;;6285871;28;20298;-71
2023/06/14 08:54:53;;;;;;;5.85;3.65;;;;;;;;;;6285920;28;20579;-71
2023/06/14 08:57:58;;;;;;;4.00;3.80;;;;;;;;;;6286740;28;20243;-71
2023/06/14 09:01:03;;;;;;;4.53;3.85;;;;;;;;;;6286980;28;20303;-70
2023/06/14 09:04:08;;;;;;;4.10;3.80;;;;;;;;;;6285993;28;20300;-71
2023/06/14 09:07:13;;;;;;;3.67;3.38;;;;;;;;;;6286180;28;20267;-72
2023/06/14 09:10:19;;;;;;;3.92;3.58;;;;;;;;;;6284969;28;20310;-71
2023/06/14 09:13:24;;;;;;;8.95;3.97;;;;;;;;;;6275750;28;20288;-71
2023/06/14 09:16:29;;;;;;;4.22;3.60;;;;;;;;;;6260980;28;20303;-71
2023/06/14 09:19:34;;;;;;;5.25;3.85;;;;;;;;;;6260754;28;20296;-71
2023/06/14 09:22:39;;;;;;;4.47;4.05;;;;;;;;;;6261536;28;20247;-71
2023/06/14 09:25:47;;;;;;;3.95;3.42;;;;;;;;;;6261215;28;20326;-70
2023/06/14 09:28:52;;;;;;;5.15;3.40;;;;;;;;;;6261963;28;20291;-72
2023/06/14 09:31:57;;;;;;;6.65;3.83;;;;;;;;;;6260515;28;20299;-71
2023/06/14 09:35:01;;;;;;;4.00;3.75;;;;;;;;;;6260622;28;20300;-71
2023/06/14 09:38:06;;;;;;;4.38;4.05;;;;;;;;;;6260742;28;20267;-71
2023/06/14 09:41:13;;;;;;;4.00;3.80;;;;;;;;;;6258975;28;20296;-71
2023/06/14 09:44:18;;;;;;;7.82;4.20;;;;;;;;;;6259341;28;20265;-71
2023/06/14 09:47:26;;;;;;;6.53;4.00;;;;;;;;;;6260651;28;20232;-70
2023/06/14 09:50:30;;;;;;;5.43;4.45;;;;;;;;;;6260195;28;20291;-71
2023/06/14 09:53:37;;;;;;;6.95;3.85;;;;;;;;;;6260055;28;20244;-71
2023/06/14 09:56:45;;;;;;;4.50;4.30;;;;;;;;;;6261206;28;20288;-71
2023/06/14 09:59:53;;;;;;;4.60;4.20;;;;;;;;;;6259546;28;20345;-71
2023/06/14 10:03:03;;;;;;;8.18;4.57;;;;;;;;;;6259953;28;20526;-72
2023/06/14 10:06:10;;;;;;;6.05;4.50;;;;;;;;;;6259440;28;20499;-71
2023/06/14 10:09:15;;;;;;;4.43;4.03;;;;;;;;;;6259598;28;20520;-72
2023/06/14 10:12:22;;;;;;;4.32;4.03;;;;;;;;;;6280044;28;20247;-72
2023/06/14 10:15:33;;;;;;;4.13;3.65;;;;;;;;;;6284152;28;20295;-71
2023/06/14 10:18:43;;;;;;;4.75;3.70;;;;;;;;;;6284689;28;20241;-70
2023/06/14 10:21:56;;;;;;;5.22;4.05;;;;;;;;;;6289238;28;20596;-72
2023/06/14 10:25:01;;;;;;;4.28;4.05;;;;;;;;;;6289100;28;20315;-71
2023/06/14 10:28:17;;;;;;;3.97;3.72;;;;;;;;;;6289659;28;20239;-71
2023/06/14 10:31:22;;;;;;;3.92;3.75;;;;;;;;;;6288763;28;20298;-71
2023/06/14 10:34:28;;;;;;;4.13;3.92;;;;;;;;;;6288624;28;20295;-72
2023/06/14 10:37:32;;;;;;;6.70;4.05;;;;;;;;;;6288719;28;20267;-71
2023/06/14 10:40:38;;;;;;;4.00;3.78;;;;;;;;;;6288841;28;20322;-71
2023/06/14 10:43:44;;;;;;;4.82;4.60;;;;;;;;;;6289203;28;20240;-72
2023/06/14 10:46:49;;;;;;;4.32;4.22;;;;;;;;;;6288909;28;20451;-71
2023/06/14 10:49:55;;;;;;;3.50;3.30;;;;;;;;;;6288607;28;20290;-70
2023/06/14 10:53:00;;;;;;;4.88;3.50;;;;;;;;;;6289134;28;20239;-71
2023/06/14 10:56:08;;;;;;;4.30;3.78;;;;;;;;;;6288532;28;20301;-71
2023/06/14 10:59:15;;;;;;;4.40;4.13;;;;;;;;;;6288421;28;20319;-70
2023/06/14 11:02:38;;;;;;;4.05;3.92;;;;;;;;;;6288704;28;20239;-73
2023/06/14 11:05:53;;;;;;;4.10;3.90;;;;;;;;;;6288303;28;20295;-73
2023/06/14 11:09:32;;;;;;;13.85;4.13;;;;;;;;;;6288443;28;20236;-71
2023/06/14 11:12:37;;;;;;;4.35;4.15;;;;;;;;;;6286391;28;20275;-71
2023/06/14 11:15:47;;;;;;;4.10;3.90;;;;;;;;;;6288563;28;20643;-72
2023/06/14 11:18:52;;;;;;;4.50;4.20;;;;;;;;;;6288766;28;20244;-72
2023/06/14 11:21:56;;;;;;;4.20;3.90;;;;;;;;;;6287927;28;20295;-71
2023/06/14 11:25:04;;;;;;;4.93;3.78;;;;;;;;;;6287573;28;20307;-72
2023/06/14 11:28:09;;;;;;;4.18;3.78;;;;;;;;;;6287942;28;20263;-71
2023/06/14 11:31:15;;;;;;;3.80;3.60;;;;;;;;;;6286201;28;20291;-72
2023/06/14 11:34:20;;;;;;;4.20;3.85;;;;;;;;;;6286913;28;20247;-72
2023/06/14 11:37:26;;;;;;;3.85;3.75;;;;;;;;;;6287794;28;20248;-72
2023/06/14 11:40:31;;;;;;;3.95;3.85;;;;;;;;;;6287183;28;20299;-70
2023/06/14 11:43:36;;;;;;;4.32;3.95;;;;;;;;;;6287929;28;20414;-71
2023/06/14 11:46:42;;;;;;;18.63;4.00;;;;;;;;;;6287201;28;20315;-70
2023/06/14 11:49:48;;;;;;;5.10;3.85;;;;;;;;;;6286926;28;20307;-69
2023/06/14 11:52:56;;;;;;;4.60;4.20;;;;;;;;;;6287194;28;20244;-71
2023/06/14 11:56:00;;;;;;;4.53;4.15;;;;;;;;;;6287186;28;20298;-70
2023/06/14 11:59:05;;;;;;;4.80;3.50;;;;;;;;;;6287915;28;20237;-71
2023/06/14 12:02:14;;;;;;;4.20;3.80;;;;;;;;;;6286153;28;20591;-71
2023/06/14 12:05:22;;;;;;;3.92;3.75;;;;;;;;;;6286216;28;20302;-70
2023/06/14 12:08:38;;;;;;;3.60;3.40;;;;;;;;;;6285206;28;20275;-71
2023/06/14 12:11:44;;;;;;;3.85;3.53;;;;;;;;;;6285529;28;20298;-71
2023/06/14 12:14:50;;;;;;;3.60;3.30;;;;;;;;;;6286139;28;20291;-70
2023/06/14 12:17:56;;;;;;;4.32;3.92;;;;;;;;;;6286549;28;20236;-70
2023/06/14 12:21:02;;;;;;;4.22;3.92;;;;;;;;;;6286121;28;20294;-70
2023/06/14 12:24:07;;;;;;;4.60;4.28;;;;;;;;;;6286175;28;20243;-74
2023/06/14 12:27:15;;;;;;;4.25;3.80;;;;;;;;;;6286575;28;20271;-72
2023/06/14 12:30:20;;;;;;;4.03;3.72;;;;;;;;;;6285527;28;20317;-71
2023/06/14 12:33:26;;;;;;;4.00;3.55;;;;;;;;;;6286961;28;20248;-72
2023/06/14 12:36:32;;;;;;;4.38;4.00;;;;;;;;;;6286107;28;20386;-71
2023/06/14 12:39:39;;;;;;;4.07;3.75;;;;;;;;;;6285773;28;20294;-71
2023/06/14 12:42:47;;;;;;;3.63;3.53;;;;;;;;;;6285891;28;20235;-72
2023/06/14 12:45:52;;;;;;;5.82;3.97;;;;;;;;;;6285288;28;20306;-73
2023/06/14 12:48:58;;;;;;;3.85;3.72;;;;;;;;;;6285925;28;20235;-72
2023/06/14 12:52:03;;;;;;;4.00;3.90;;;;;;;;;;6285603;28;20295;-73
2023/06/14 12:55:08;;;;;;;4.45;4.35;;;;;;;;;;6285157;28;20283;-72
2023/06/14 12:58:13;;;;;;;4.15;3.78;;;;;;;;;;6286266;28;20259;-71
2023/06/14 13:01:18;;;;;;;4.15;3.83;;;;;;;;;;6285499;28;20299;-71
2023/06/14 13:04:24;;;;;;;4.32;3.85;;;;;;;;;;6285428;28;20252;-71
2023/06/14 13:07:29;;;;;;;6.53;4.07;;;;;;;;;;6285347;28;20259;-72
2023/06/14 13:10:34;;;;;;;4.25;4.05;;;;;;;;;;6284537;28;20291;-73
2023/06/14 13:13:38;;;;;;;3.83;3.67;;;;;;;;;;6285287;28;20562;-73
2023/06/14 13:16:43;;;;;;;4.00;3.70;;;;;;;;;;6285266;28;20291;-73
2023/06/14 13:19:49;;;;;;;5.97;3.80;;;;;;;;;;6285376;28;20292;-72
2023/06/14 13:22:54;;;;;;;4.15;3.85;;;;;;;;;;6286422;28;20239;-71
2023/06/14 13:25:59;;;;;;;3.85;3.65;;;;;;;;;;6285086;28;20604;-73
2023/06/14 13:29:07;;;;;;;;;;;;;;;;;;6284974;28;20108;-72
2023/06/14 13:32:11;;;;;;;3.75;3.63;;;;;;;;;;6284973;28;20272;-72
2023/06/14 13:35:18;;;;;;;4.30;3.97;;;;;;;;;;6285058;28;20300;-72
2023/06/14 13:38:22;;;;;;;4.03;3.83;;;;;;;;;;6283586;28;20275;-72
2023/06/14 13:41:31;;;;;;;9.20;4.00;;;;;;;;;;6284202;28;20311;-73
2023/06/14 13:44:36;;;;;;;4.20;4.00;;;;;;;;;;6283075;28;20287;-71
2023/06/14 13:47:41;;;;;;;4.22;3.70;;;;;;;;;;6284940;28;20463;-73
2023/06/14 13:50:47;;;;;;;4.00;3.67;;;;;;;;;;6283981;28;20295;-73
2023/06/14 13:53:52;;;;;;;5.55;4.10;;;;;;;;;;6284426;28;20437;-72
2023/06/14 13:56:57;;;;;;;8.98;4.10;;;;;;;;;;6284177;28;20410;-73
2023/06/14 14:00:03;;;;;;;3.95;3.75;;;;;;;;;;6284343;28;20365;-72
2023/06/14 14:03:15;;;;;;;5.40;3.40;;;;;;;;;;6292882;28;20239;-72
2023/06/14 14:06:21;;;;;;;8.43;3.95;;;;;;;;;;6282934;28;20567;-72
2023/06/14 14:09:26;;;;;;;5.20;3.75;;;;;;;;;;6284168;28;23465;-72
2023/06/14 14:12:31;;;;;;;4.57;4.03;;;;;;;;;;6284050;28;20251;-72
2023/06/14 14:15:35;;;;;;;3.97;3.67;;;;;;;;;;6283986;28;20311;-73
2023/06/14 14:18:40;;;;;;;3.80;3.60;;;;;;;;;;6299675;28;20457;-72
2023/06/14 14:21:47;;;;;;;3.88;3.63;;;;;;;;;;6283350;28;20390;-71
2023/06/14 14:24:51;;;;;;;5.88;3.92;;;;;;;;;;6284195;28;20291;-73
2023/06/14 14:27:56;;;;;;;4.40;4.00;;;;;;;;;;6284016;28;20558;-72
2023/06/14 14:31:02;;;;;;;8.82;4.35;;;;;;;;;;6284119;28;20630;-72
2023/06/14 14:34:06;;;;;;;9.10;3.70;;;;;;;;;;6283795;28;20236;-72
2023/06/14 14:37:14;;;;;;;4.32;4.03;;;;;;;;;;6284884;28;20324;-72
2023/06/14 14:40:19;;;;;;;3.85;3.70;;;;;;;;;;6284405;28;20299;-72
2023/06/14 14:43:24;;;;;;;3.75;3.55;;;;;;;;;;6284855;28;20244;-73
2023/06/14 14:46:29;;;;;;;6.53;4.10;;;;;;;;;;6284135;28;20303;-73
2023/06/14 14:49:34;;;;;;;3.92;3.65;;;;;;;;;;6284033;28;20299;-72
2023/06/14 14:52:40;;;;;;;3.92;3.50;;;;;;;;;;6284673;28;20243;-72
2023/06/14 14:55:45;;;;;;;4.88;3.90;;;;;;;;;;6284172;28;20303;-73
2023/06/14 14:58:50;;;;;;;8.93;3.85;;;;;;;;;;6284461;28;20244;-74
2023/06/14 15:01:55;;;;;;;3.45;3.33;;;;;;;;;;6283787;28;20296;-72
2023/06/14 15:05:00;;;;;;;4.35;3.70;;;;;;;;;;6282372;28;20294;-72
2023/06/14 15:08:11;;;;;;;8.52;3.80;;;;;;;;;;6288048;28;20458;-71
2023/06/14 15:11:16;;;;;;;3.95;3.70;;;;;;;;;;6288283;28;20310;-72
2023/06/14 15:14:20;;;;;;;3.83;3.63;;;;;;;;;;6287877;28;20239;-71
2023/06/14 15:17:25;;;;;;;5.20;3.58;;;;;;;;;;6288486;28;20383;-72
2023/06/14 15:20:30;;;;;;;7.10;3.50;;;;;;;;;;6288193;28;20295;-72
2023/06/14 15:23:37;;;;;;;5.35;3.58;;;;;;;;;;6288576;28;20235;-72
2023/06/14 15:26:41;;;;;;;6.70;3.85;;;;;;;;;;6288170;28;20295;-74
2023/06/14 15:29:46;;;;;;;3.50;3.30;;;;;;;;;;6287354;28;20468;-72
2023/06/14 15:32:54;;;;;;;8.50;3.50;;;;;;;;;;6288026;28;20240;-72
2023/06/14 15:35:59;;;;;;;11.00;3.67;;;;;;;;;;6287575;28;20290;-73
2023/06/14 15:39:05;;;;;;;5.60;3.40;;;;;;;;;;6287862;28;20417;-72
2023/06/14 15:42:11;;;;;;;4.30;3.85;;;;;;;;;;6287158;28;20275;-72
2023/06/14 15:45:16;;;;;;;7.43;3.90;;;;;;;;;;6287463;28;20291;-72
2023/06/14 15:48:21;;;;;;;4.00;3.65;;;;;;;;;;6287513;28;20263;-72
2023/06/14 15:51:25;;;;;;;4.15;3.58;;;;;;;;;;6287559;28;20303;-71
2023/06/14 15:54:32;;;;;;;4.22;4.03;;;;;;;;;;6287731;28;20299;-72
2023/06/14 15:57:36;;;;;;;4.15;3.78;;;;;;;;;;6287655;28;20245;-72
2023/06/14 16:00:41;;;;;;;3.88;3.40;;;;;;;;;;6287416;28;20323;-72
2023/06/14 16:03:46;;;;;;;3.80;3.50;;;;;;;;;;6287356;28;20543;-73
2023/06/14 16:06:51;;;;;;;4.93;3.70;;;;;;;;;;6286743;28;20367;-72
2023/06/14 16:09:57;;;;;;;7.38;3.42;;;;;;;;;;6286037;28;20294;-72
2023/06/14 16:13:01;;;;;;;;;;;;;;;;;;6287264;28;20100;-72
2023/06/14 16:16:06;;;;;;;;;;;;;;;;;;6286495;28;19984;-71
2023/06/14 16:19:10;;;;;;;;;;;;;;;;;;6285567;28;20007;-71
2023/06/14 16:22:14;;;;;;;;;;;;;;;;;;6285462;28;19983;-71
2023/06/14 16:25:21;;;;;;;6.32;3.85;;;;;;;;;;6285493;28;20464;-73
2023/06/14 16:28:26;;;;;;;5.53;3.60;;;;;;;;;;6286023;28;20282;-72
2023/06/14 16:31:30;;;;;;;7.07;3.75;;;;;;;;;;6286197;28;20295;-71
2023/06/14 16:34:35;;;;;;;4.63;3.90;;;;;;;;;;6286109;28;20311;-70
2023/06/14 16:37:40;;;;;;;3.90;3.63;;;;;;;;;;6286278;28;20243;-69
2023/06/14 16:40:46;;;;;;;4.07;3.83;;;;;;;;;;6285809;28;20302;-70
2023/06/14 16:43:50;;;;;;;3.88;3.45;;;;;;;;;;6282788;28;20487;-73
2023/06/14 16:46:55;;;;;;;4.05;3.78;;;;;;;;;;6284143;28;20311;-70
2023/06/14 16:50:00;;;;;;;8.23;4.10;;;;;;;;;;6285571;28;20295;-70
2023/06/14 16:53:04;;;;;;;7.40;3.80;;;;;;;;;;6286230;28;20247;-69
2023/06/14 16:56:11;;;;;;;5.05;4.00;;;;;;;;;;6286005;28;20295;-69
2023/06/14 16:59:15;;;;;;;6.85;4.38;;;;;;;;;;6285841;28;20391;-69
2023/06/14 17:02:20;;;;;;;15.82;11.77;;;;;;;;;;6285746;28;20244;-70
2023/06/14 17:05:25;;;;;;;6.07;3.80;;;;;;;;;;6285402;28;20548;-70
2023/06/14 17:08:29;;;;;;;3.85;3.60;;;;;;;;;;6285904;28;20268;-70
2023/06/14 17:11:35;;;;;;;8.43;3.60;;;;;;;;;;6284610;28;20287;-70
2023/06/14 17:14:41;;;;;;;3.90;3.53;;;;;;;;;;6284739;28;20287;-70
2023/06/14 17:17:45;;;;;;;4.45;3.85;;;;;;;;;;6283883;28;20445;-70
2023/06/14 17:20:51;;;;;;;4.03;3.83;;;;;;;;;;6285078;28;20326;-69
2023/06/14 17:23:56;;;;;;;4.88;3.85;;;;;;;;;;6285557;28;20236;-70
2023/06/14 17:27:02;;;;;;;4.07;3.85;;;;;;;;;;6285059;28;20294;-67
2023/06/14 17:30:09;;;;;;;3.58;3.35;;;;;;;;;;6284108;28;20291;-70
2023/06/14 17:33:14;;;;;;;9.63;3.72;;;;;;;;;;6285330;28;20252;-70
2023/06/14 17:36:19;;;;;;;9.10;3.88;;;;;;;;;;6284604;28;20291;-70
2023/06/14 17:39:24;;;;;;;3.45;3.25;;;;;;;;;;6283250;28;20287;-70
2023/06/14 17:42:30;;;;;;;4.15;3.55;;;;;;;;;;6284878;28;20243;-71
2023/06/14 17:45:35;;;;;;;3.33;3.03;;;;;;;;;;6284734;28;20294;-70
2023/06/14 17:48:58;;;;;;;3.58;3.30;;;;;;;;;;6284988;28;20243;-70
2023/06/14 17:52:03;;;;;;;3.60;3.50;;;;;;;;;;6284560;28;20559;-70
2023/06/14 17:55:09;;;;;;;3.85;3.55;;;;;;;;;;6284620;28;20287;-70
2023/06/14 17:58:15;;;;;;;9.30;5.97;;;;;;;;;;6283630;28;20479;-69
2023/06/14 18:01:20;;;;;;;6.13;5.57;;;;;;;;;;6284247;28;20302;-69
2023/06/14 18:04:25;;;;;;;7.93;4.13;;;;;;;;;;6284049;28;20239;-70
2023/06/14 18:07:30;;;;;;;3.90;3.60;;;;;;;;;;6284767;28;20247;-70
2023/06/14 18:10:35;;;;;;;3.67;3.38;;;;;;;;;;6283598;28;20354;-69
2023/06/14 18:13:41;;;;;;;5.20;3.40;;;;;;;;;;6260191;28;20241;-71
2023/06/14 18:16:45;;;;;;;10.13;3.60;;;;;;;;;;6259034;28;20287;-70
2023/06/14 18:19:50;;;;;;;4.38;3.42;;;;;;;;;;6258049;28;20398;-70
2023/06/14 18:22:55;;;;;;;4.47;3.55;;;;;;;;;;6259744;28;20245;-69
2023/06/14 18:25:59;;;;;;;4.50;4.10;;;;;;;;;;6259186;28;20295;-69
2023/06/14 18:29:06;;;;;;;4.30;3.92;;;;;;;;;;6259382;28;20279;-70
2023/06/14 18:32:10;;;;;;;3.75;3.55;;;;;;;;;;6259126;28;20272;-69
2023/06/14 18:35:16;;;;;;;3.88;3.60;;;;;;;;;;6259381;28;20295;-68